Latest Weather Observations for Learmonth

IDW60801

Issued at 4:33 pm WST Tuesday 27 September 2016 (issued every 30 minutes, with the page automatically refreshed every 10 minutes)

About weather observations | Map of weather stations | Latest weather observations for WA | Other Formats
Station Details ID: 005007 Name: LEARMONTH AIRPORT Lat: -22.24 Lon: 114.10 Height: 5.0 m
Data from the previous 72 hours. | See also: Recent months at Learmonth
Date/Time
WST
Temp
°C
App
Temp
°C
Dew
Point
°C
Rel
Hum
%
Delta-T
°C
Wind Press
QNH
hPa
Press
MSL
hPa
Rain since
9am
mm
Dir  Spd
km/h
Gust
km/h
Spd
kts
Gust
kts
27/04:17pm 28.7 19.3 4.5 21 12.4 SSW 43 61 23 33 1011.0 - 0.0
27/04:00pm 29.3 20.1 3.6 19 13.0 SSW 41 56 22 30 1011.0 - 0.0
27/03:30pm 30.4 20.6 2.3 16 14.0 SSW 43 54 23 29 1010.8 - 0.0
27/03:00pm 31.2 22.2 0.2 13 15.0 SSW 37 48 20 26 1010.8 1010.7 0.0
27/02:41pm 31.7 23.5 0.1 13 15.3 SSW 33 54 18 29 1010.8 - 0.0
27/02:30pm 32.5 24.9 -9.4 6 17.4 SSE 24 35 13 19 1011.0 - 0.0
27/02:00pm 32.2 24.6 -10.0 6 17.3 SSE 24 33 13 18 1011.2 - 0.0
27/01:30pm 32.2 23.8 -10.0 6 17.3 SSE 28 37 15 20 1011.5 - 0.0
27/01:00pm 31.6 23.6 -10.4 6 17.0 SSE 26 41 14 22 1011.9 - 0.0
27/12:30pm 30.8 21.7 -9.2 7 16.4 SSE 32 39 17 21 1012.5 - 0.0
27/12:00pm 30.3 22.2 -6.9 8 15.8 S 28 39 15 21 1012.9 1012.8 0.0
27/11:30am 29.4 20.8 -4.5 10 14.9 S 32 41 17 22 1013.3 - 0.0
27/11:00am 28.6 20.4 -3.7 12 14.3 SSE 30 39 16 21 1013.6 - 0.0
27/10:30am 27.4 18.9 -3.6 13 13.6 SSE 32 41 17 22 1013.9 - 0.0
27/10:00am 26.1 18.1 -2.7 15 12.7 SSE 30 41 16 22 1014.3 - 0.0
27/09:30am 24.8 17.3 -1.3 18 11.7 S 28 39 15 21 1014.7 - 0.0
27/09:00am 23.5 16.1 -0.5 20 10.8 S 28 35 15 19 1014.9 1014.8 0.0
27/08:30am 21.9 14.7 0.5 24 9.7 S 28 37 15 20 1015.1 - 0.0
27/08:00am 19.5 14.4 4.2 36 7.3 S 20 30 11 16 1015.1 - 0.0
27/07:30am 17.1 12.2 5.2 45 5.7 SSW 20 28 11 15 1015.1 - 0.0
27/07:00am 14.8 10.5 6.8 58 3.9 SSW 19 24 10 13 1014.8 - 0.0
27/06:30am 12.7 8.5 7.3 69 2.6 SW 19 22 10 12 1014.7 - 0.0
27/06:00am 12.2 8.4 7.7 74 2.2 SW 17 20 9 11 1014.5 1014.4 0.0
27/05:30am 12.7 8.5 7.6 71 2.5 SSW 19 22 10 12 1014.3 - 0.0
27/05:00am 12.7 8.6 8.0 73 2.3 SW 19 24 10 13 1014.1 - 0.0
27/04:30am 12.8 9.1 7.9 72 2.4 SW 17 20 9 11 1013.9 - 0.0
27/04:00am 13.1 9.0 8.0 71 2.5 SSW 19 22 10 12 1013.7 - 0.0
27/03:30am 13.5 9.4 8.0 69 2.7 SSW 19 28 10 15 1013.9 - 0.0
27/03:00am 13.9 9.9 8.1 68 2.9 SSW 19 24 10 13 1013.9 1013.8 0.0
27/02:30am 14.0 9.7 8.0 67 3.0 SSW 20 24 11 13 1014.0 - 0.0
27/02:00am 14.3 10.0 7.8 65 3.2 SSW 20 24 11 13 1013.9 - 0.0
27/01:30am 14.8 10.5 8.0 64 3.4 SSW 20 30 11 16 1014.0 - 0.0
27/01:00am 15.3 10.3 8.1 62 3.6 SSW 24 32 13 17 1014.0 - 0.0
27/12:30am 15.9 10.5 8.2 60 3.9 SSW 26 35 14 19 1014.3 - 0.0
27/12:00am 16.4 11.1 8.3 58 4.1 SSW 26 35 14 19 1014.5 1014.4 0.0
 
Date/Time
WST
Temp
°C
App
Temp
°C
Dew
Point
°C
Rel
Hum
%
Delta-T
°C
Wind Press
QNH
hPa
Press
MSL
hPa
Rain since
9am
mm
Dir  Spd
km/h
Gust
km/h
Spd
kts
Gust
kts
26/11:30pm 17.0 11.6 7.9 55 4.6 SSW 26 37 14 20 1014.6 - 0.0
26/11:00pm 17.4 11.4 7.2 51 5.1 SSW 28 35 15 19 1014.8 - 0.0
26/10:30pm 18.2 11.1 6.5 46 5.8 SSW 33 44 18 24 1014.9 - 0.0
26/10:00pm 18.5 11.9 6.1 44 6.1 SSW 30 41 16 22 1015.0 - 0.0
26/09:30pm 19.1 12.0 6.5 43 6.3 SSW 33 44 18 24 1015.0 - 0.0
26/09:00pm 19.6 12.6 8.4 48 5.8 SSW 35 50 19 27 1014.8 1014.7 0.0
26/08:30pm 20.0 13.2 10.6 54 5.1 SSW 37 46 20 25 1014.3 - 0.0
26/08:00pm 20.2 14.5 11.3 56 4.9 SSW 32 43 17 23 1014.1 - 0.0
26/07:30pm 20.5 15.0 11.7 57 4.9 SW 32 41 17 22 1013.9 - 0.0
26/07:00pm 21.3 16.0 11.2 52 5.6 SW 30 37 16 20 1013.6 - 0.0
26/06:30pm 22.4 16.7 11.0 48 6.3 SW 32 41 17 22 1013.2 - 0.0
26/06:00pm 24.3 19.4 9.9 40 7.9 SW 26 35 14 19 1012.7 1012.6 0.0
26/05:30pm 28.5 21.7 -9.0 8 15.1 SSE 20 24 11 13 1012.2 - 0.0
26/05:00pm 29.1 21.8 -10.3 7 15.6 SSE 22 28 12 15 1011.9 - 0.0
26/04:30pm 29.7 22.4 -10.9 6 16.0 SE 22 30 12 16 1012.0 - 0.0
26/04:00pm 29.4 21.9 -13.3 5 16.1 SSE 22 30 12 16 1012.0 - 0.0
26/03:30pm 29.9 22.3 -10.0 7 16.0 SE 24 30 13 16 1011.9 - 0.0
26/03:00pm 29.4 21.4 -10.6 7 15.8 SE 26 35 14 19 1011.8 1011.7 0.0
26/02:30pm 29.2 21.3 -9.1 7 15.5 ESE 26 37 14 20 1012.1 - 0.0
26/02:00pm 29.1 20.9 -8.1 8 15.3 ESE 28 39 15 21 1012.4 - 0.0
26/01:30pm 28.4 21.1 -6.0 10 14.6 SE 24 33 13 18 1012.7 - 0.0
26/01:00pm 28.3 19.9 -6.4 10 14.6 ESE 30 41 16 22 1013.3 - 0.0
26/12:30pm 27.6 19.2 -5.7 11 14.1 ESE 30 37 16 20 1013.6 - 0.0
26/12:00pm 27.4 19.2 -4.1 12 13.7 SE 30 39 16 21 1014.3 1014.2 0.0
26/11:30am 26.9 18.6 -0.6 16 12.7 SE 33 44 18 24 1014.8 - 0.0
26/11:00am 25.7 17.7 0.3 19 11.8 SSE 32 43 17 23 1015.3 - 0.0
26/10:30am 24.8 16.8 1.8 22 10.9 SE 33 43 18 23 1016.0 - 0.0
26/10:00am 24.0 15.9 3.1 25 10.1 SE 35 46 19 25 1016.2 - 0.0
26/09:30am 22.9 15.0 4.4 30 9.1 SSE 35 46 19 25 1016.4 - 0.0
26/09:00am 21.6 13.9 5.2 34 8.1 SSE 35 50 19 27 1016.6 1016.5 0.0
26/08:30am 20.6 13.1 6.2 39 7.2 SSE 35 44 19 24 1016.4 - 0.0
26/08:00am 19.0 11.6 6.6 44 6.2 S 35 46 19 25 1016.2 - 0.0
26/07:55am 18.8 11.8 6.8 45 6.0 S 33 46 18 25 1016.2 - 0.0
26/07:30am 17.5 12.9 8.1 54 4.8 S 22 28 12 15 1016.1 - 0.0
26/07:00am 15.1 11.3 9.0 67 3.1 S 19 26 10 14 1015.8 - 0.0
26/06:30am 12.5 9.6 9.5 82 1.5 SSW 15 19 8 10 1015.7 - 0.0
26/06:00am 11.7 8.8 9.5 86 1.1 SSW 15 19 8 10 1015.4 1015.3 0.0
26/05:30am 12.6 9.0 9.9 83 1.4 SSW 19 24 10 13 1015.1 - 0.0
26/05:00am 13.1 9.0 10.0 81 1.6 SSW 22 30 12 16 1014.8 - 0.0
26/04:30am 13.6 9.1 10.1 79 1.8 SSW 24 30 13 16 1014.4 - 0.0
26/04:00am 14.0 9.1 10.1 77 2.0 SSW 26 33 14 18 1014.3 - 0.0
26/03:30am 14.3 9.5 10.3 77 2.1 SSW 26 33 14 18 1014.1 - 0.0
26/03:00am 14.5 10.1 10.3 76 2.2 SSW 24 32 13 17 1014.2 1014.1 0.0
26/02:30am 14.8 10.4 10.4 75 2.3 SSW 24 32 13 17 1014.3 - 0.0
26/02:00am 15.2 10.4 10.2 72 2.6 SSW 26 35 14 19 1014.4 - 0.0
26/01:30am 15.6 10.0 10.1 70 2.9 SSW 30 37 16 20 1014.4 - 0.0
26/01:00am 15.6 10.7 10.1 70 2.9 SSW 26 33 14 18 1014.7 - 0.0
26/12:30am 15.9 11.0 10.0 68 3.1 SSW 26 33 14 18 1015.1 - 0.0
26/12:00am 16.4 11.1 9.7 64 3.5 SSW 28 37 15 20 1015.2 1015.1 0.0
 
Date/Time
WST
Temp
°C
App
Temp
°C
Dew
Point
°C
Rel
Hum
%
Delta-T
°C
Wind Press
QNH
hPa
Press
MSL
hPa
Rain since
9am
mm
Dir  Spd
km/h
Gust
km/h
Spd
kts
Gust
kts
25/11:30pm 16.5 11.1 9.6 63 3.6 SSW 28 37 15 20 1015.4 - 0.0
25/11:00pm 16.7 11.8 9.8 63 3.6 SSW 26 35 14 19 1015.5 - 0.0
25/10:30pm 16.9 11.8 10.5 66 3.4 SSW 28 37 15 20 1015.5 - 0.0
25/10:00pm 17.2 12.6 11.1 67 3.3 SSW 26 35 14 19 1015.3 - 0.0
25/09:30pm 17.5 12.2 11.4 67 3.3 SSW 30 41 16 22 1015.2 - 0.0
25/09:00pm 18.0 12.4 11.4 65 3.6 SSW 32 41 17 22 1014.9 1014.8 0.0
25/08:30pm 18.5 12.6 11.3 63 3.9 SSW 33 43 18 23 1014.7 - 0.0
25/08:00pm 18.8 13.3 11.7 63 3.9 SSW 32 43 17 23 1014.3 - 0.0
25/07:30pm 19.1 13.4 11.2 60 4.3 SSW 32 41 17 22 1014.0 - 0.0
25/07:00pm 19.6 13.0 9.9 53 5.2 SW 35 48 19 26 1013.6 - 0.0
25/06:46pm 19.9 13.7 9.3 50 5.6 SW 32 50 17 27 1013.3 - 0.0
25/06:30pm 20.2 13.5 7.5 43 6.5 SW 32 46 17 25 1013.0 - 0.0
25/06:00pm 21.4 14.1 7.2 40 7.3 SSW 35 44 19 24 1012.6 1012.5 0.0
25/05:30pm 22.7 14.7 7.3 37 8.0 SSW 39 48 21 26 1012.2 - 0.0
25/05:00pm 23.7 16.3 6.6 33 8.8 SSW 35 46 19 25 1012.0 - 0.0
25/04:30pm 25.1 17.5 5.8 29 9.9 SSW 35 48 19 26 1011.7 - 0.0
25/04:00pm 25.9 18.6 4.7 25 10.7 SW 32 44 17 24 1011.5 - 0.0
25/03:30pm 26.6 20.0 4.1 23 11.3 S 28 44 15 24 1011.5 - 0.0
25/03:00pm 26.7 18.7 0.2 17 12.4 S 32 44 17 24 1011.7 1011.6 0.0
25/02:30pm 27.2 20.0 0.5 17 12.6 S 28 43 15 23 1011.9 - 0.0
25/02:16pm 25.8 18.5 0.2 18 11.9 S 28 46 15 25 1011.9 - 0.0
25/02:00pm 25.6 18.3 0.2 19 11.8 S 28 39 15 21 1012.2 - 0.0
25/01:30pm 25.7 18.8 0.4 19 11.8 SSW 26 32 14 17 1012.5 - 0.0
25/01:06pm 25.6 18.5 1.3 20 11.5 SSE 28 46 15 25 1013.0 - 0.0
25/01:00pm 25.1 18.3 0.6 20 11.4 S 26 43 14 23 1013.1 - 0.0
25/12:30pm 24.3 17.7 2.0 23 10.6 S 26 43 14 23 1013.8 - 0.0
25/12:13pm 23.6 16.2 2.0 24 10.2 S 30 48 16 26 1013.9 - 0.0
25/12:00pm 23.5 16.1 1.8 24 10.2 S 30 44 16 24 1014.3 1014.2 0.0
25/11:34am 24.0 16.7 2.4 24 10.3 S 30 48 16 26 1014.7 - 0.0
25/11:30am 23.1 15.4 2.4 25 9.8 S 32 48 17 26 1014.8 - 0.0
25/11:00am 22.7 14.9 3.1 27 9.4 SSE 33 52 18 28 1015.2 - 0.0
25/10:59am 22.9 15.4 3.7 28 9.3 SSE 32 52 17 28 1015.2 - 0.0
25/10:30am 22.5 14.6 4.3 30 8.9 SSE 35 44 19 24 1015.6 - 0.0
25/10:00am 21.2 14.0 6.0 37 7.6 SSE 33 44 18 24 1015.7 - 0.0
25/09:30am 20.7 13.7 6.9 40 7.0 S 33 48 18 26 1016.2 - 0.0
25/09:00am 19.4 12.3 8.2 48 5.8 S 35 48 19 26 1016.3 1016.2 0.0
25/08:30am 19.5 12.9 8.5 49 5.7 S 33 43 18 23 1016.4 - 0.0
25/08:00am 17.7 11.5 9.5 58 4.3 S 32 43 17 23 1016.3 - 0.0
25/07:30am 15.9 12.0 9.5 66 3.3 S 20 26 11 14 1016.0 - 0.0
25/07:00am 13.5 10.5 9.4 76 2.1 SSW 15 17 8 9 1015.6 - 0.0
25/06:30am 11.6 8.9 9.0 84 1.3 SSW 13 17 7 9 1015.3 - 0.0
25/06:00am 11.1 8.0 8.7 85 1.2 SW 15 17 8 9 1014.9 1014.8 0.0
25/05:30am 11.5 8.4 8.7 83 1.4 SSW 15 20 8 11 1014.7 - 0.0
25/05:00am 12.3 9.2 8.7 79 1.8 SSW 15 19 8 10 1014.5 - 0.0
25/04:30am 13.3 9.4 8.7 73 2.3 S 19 26 10 14 1014.2 - 0.0
25/04:00am 13.5 9.7 8.9 74 2.3 SSW 19 26 10 14 1014.1 - 0.0
25/03:30am 12.6 9.1 8.8 77 1.9 SSW 17 20 9 11 1014.1 - 0.0
25/03:00am 12.8 8.8 8.4 74 2.2 SW 19 22 10 12 1014.1 1014.0 0.0
25/02:30am 12.8 8.6 7.5 70 2.6 SW 19 24 10 13 1014.2 - 0.0
25/02:00am 12.7 8.4 7.1 69 2.7 SSW 19 22 10 12 1014.0 - 0.0
25/01:30am 13.4 8.9 6.8 64 3.2 SSW 20 24 11 13 1013.9 - 0.0
25/01:00am 13.9 9.3 6.4 60 3.6 SSW 20 26 11 14 1014.1 - 0.0
25/12:30am 14.3 9.2 6.2 58 3.9 SW 22 26 12 14 1013.9 - 0.0
25/12:00am 14.7 9.6 6.2 56 4.1 SSW 22 26 12 14 1013.9 1013.8 0.0
 
Date/Time
WST
Temp
°C
App
Temp
°C
Dew
Point
°C
Rel
Hum
%
Delta-T
°C
Wind Press
QNH
hPa
Press
MSL
hPa
Rain since
9am
mm
Dir  Spd
km/h
Gust
km/h
Spd
kts
Gust
kts
24/11:30pm 15.3 9.9 6.2 54 4.4 SSW 24 32 13 17 1014.0 - 0.0
24/11:00pm 15.9 10.5 6.5 53 4.6 SSW 24 32 13 17 1014.0 - 0.0
24/10:30pm 16.2 10.6 7.1 55 4.5 SSW 26 33 14 18 1014.1 - 0.0
24/10:00pm 16.7 12.0 9.2 61 3.9 SSW 24 33 13 18 1014.2 - 0.0
24/09:30pm 17.4 12.3 10.5 64 3.7 SSW 28 35 15 19 1014.1 - 0.0
24/09:00pm 17.7 12.2 10.6 63 3.8 SSW 30 41 16 22 1013.9 1013.8 0.0
24/08:30pm 18.5 12.9 10.0 57 4.5 SW 30 41 16 22 1013.6 - 0.0
24/08:00pm 18.8 13.8 9.5 54 4.9 SW 26 35 14 19 1013.3 - 0.0
24/07:30pm 19.3 14.4 8.3 49 5.7 SW 24 35 13 19 1013.3 - 0.0
24/07:00pm 20.2 13.9 5.9 39 7.1 SW 28 39 15 21 1013.0 - 0.0
24/06:30pm 20.9 15.3 5.6 36 7.6 SW 24 32 13 17 1012.8 - 0.0
24/06:00pm 22.3 16.4 4.0 30 8.9 SW 24 32 13 17 1012.4 1012.3 0.0
24/05:30pm 23.8 16.7 3.8 27 9.8 SSW 30 39 16 21 1012.2 - 0.0
24/05:00pm 24.9 17.5 3.8 25 10.4 SW 32 39 17 21 1012.0 - 0.0

Other Formats:

Comma delimited format used in spreadsheet applications
http://www.bom.gov.au/fwo/IDW60801/IDW60801.94302.axf

JavaScript Object Notation format (JSON) in row-major order
http://www.bom.gov.au/fwo/IDW60801/IDW60801.94302.json